Time;durP1;ratioP1;P1;durP2;ratioP2;P2;SDS_P1;SDS_P2;PMS_P1;PMS_P2;Temp;Humidity;BMP_temperature;BMP_pressure;BME280_temperature;BME280_humidity;BME280_pressure;Samples;Min_cycle;Max_cycle;Signal;HPM_P1;HPM_P2
2023/07/24 00:02:23;;;;;;;4.07;2.72;;;;;;;18.51;100.00;100375.56;5316170;28;20047;-68
2023/07/24 00:04:55;;;;;;;6.30;3.10;;;;;;;18.54;100.00;100364.41;5305474;28;20055;-68
2023/07/24 00:07:26;;;;;;;6.03;3.10;;;;;;;18.58;100.00;100365.72;5304146;27;20032;-68
2023/07/24 00:09:57;;;;;;;5.57;3.20;;;;;;;18.65;100.00;100365.81;5306012;28;20035;-67
2023/07/24 00:12:29;;;;;;;5.13;3.35;;;;;;;18.73;100.00;100362.22;5308408;28;20028;-67
2023/07/24 00:15:01;;;;;;;6.88;3.60;;;;;;;18.60;100.00;100363.69;5305391;28;20547;-68
2023/07/24 00:17:32;;;;;;;5.35;3.08;;;;;;;18.73;100.00;100349.53;5300884;28;20041;-68
2023/07/24 00:20:04;;;;;;;5.88;3.60;;;;;;;18.72;100.00;100350.56;5304718;27;20390;-68
2023/07/24 00:22:36;;;;;;;6.45;3.58;;;;;;;18.77;100.00;100348.16;5304098;28;20491;-68
2023/07/24 00:25:08;;;;;;;7.72;3.70;;;;;;;18.71;100.00;100348.88;5307443;28;20031;-68
2023/07/24 00:27:40;;;;;;;6.38;4.20;;;;;;;18.68;100.00;100345.69;5305332;28;20122;-68
2023/07/24 00:30:11;;;;;;;7.55;4.07;;;;;;;18.59;100.00;100345.78;5307601;28;20035;-68
2023/07/24 00:32:42;;;;;;;7.20;3.38;;;;;;;18.64;100.00;100331.72;5304533;28;20492;-68
2023/07/24 00:35:14;;;;;;;5.60;3.50;;;;;;;18.69;100.00;100328.47;5305385;27;20490;-68
2023/07/24 00:37:45;;;;;;;6.78;3.83;;;;;;;18.38;100.00;100329.41;5306306;28;20035;-68
2023/07/24 00:40:17;;;;;;;6.43;3.83;;;;;;;18.61;100.00;100332.91;5305120;28;20028;-68
2023/07/24 00:42:48;;;;;;;6.22;3.42;;;;;;;18.53;100.00;100322.19;5307694;28;20032;-68
2023/07/24 00:45:21;;;;;;;5.72;3.88;;;;;;;18.48;100.00;100321.88;5306075;28;20023;-68
2023/07/24 00:47:52;;;;;;;6.78;3.80;;;;;;;18.53;100.00;100321.38;5305235;28;20028;-67
2023/07/24 00:50:25;;;;;;;7.28;4.35;;;;;;;18.51;100.00;100316.13;5308756;28;20089;-68
2023/07/24 00:52:57;;;;;;;7.18;3.97;;;;;;;18.45;100.00;100311.47;5307090;28;20591;-68
2023/07/24 00:55:29;;;;;;;6.57;4.13;;;;;;;18.55;100.00;100317.44;5307910;28;20015;-68
2023/07/24 00:58:02;;;;;;;8.18;4.85;;;;;;;18.58;100.00;100309.00;5301678;28;20055;-68
2023/07/24 01:00:33;;;;;;;7.33;4.73;;;;;;;18.56;100.00;100308.34;5307750;28;20490;-68
2023/07/24 01:03:05;;;;;;;6.93;4.07;;;;;;;18.53;100.00;100310.56;5310557;28;20030;-68
2023/07/24 01:05:36;;;;;;;8.82;5.00;;;;;;;18.55;100.00;100303.94;5301192;28;20481;-69
2023/07/24 01:08:08;;;;;;;9.40;4.75;;;;;;;18.59;100.00;100299.00;5313283;28;20776;-68
2023/07/24 01:10:39;;;;;;;10.02;5.28;;;;;;;18.58;100.00;100297.31;5315368;28;20484;-68
2023/07/24 01:13:23;;;;;;;10.02;5.10;;;;;;;18.61;100.00;100294.25;5310756;28;20091;-68
2023/07/24 01:16:03;;;;;;;7.20;4.55;;;;;;;18.43;100.00;100289.19;5307257;28;20289;-68
2023/07/24 01:18:36;;;;;;;6.50;4.50;;;;;;;18.58;100.00;100279.25;5307766;28;20024;-68
2023/07/24 01:21:11;;;;;;;8.70;5.47;;;;;;;18.72;100.00;100284.88;5306841;28;20080;-69
2023/07/24 01:24:24;;;;;;;10.07;5.70;;;;;;;18.86;100.00;100286.78;5307982;28;20405;-68
2023/07/24 01:26:55;;;;;;;9.77;6.35;;;;;;;18.67;100.00;100285.41;5305308;28;20032;-68
2023/07/24 01:29:27;;;;;;;10.32;5.55;;;;;;;18.71;100.00;100281.31;5298583;28;20032;-68
2023/07/24 01:31:58;;;;;;;14.43;6.35;;;;;;;18.72;100.00;100287.59;5298277;28;20030;-71
2023/07/24 01:34:29;;;;;;;29.33;8.85;;;;;;;18.71;100.00;100275.91;5305474;28;20031;-71
2023/07/24 01:37:01;;;;;;;51.75;11.38;;;;;;;18.68;100.00;100278.13;5299974;28;20419;-71
2023/07/24 01:39:34;;;;;;;18.73;7.38;;;;;;;18.64;100.00;100282.22;5302413;28;20032;-71
2023/07/24 01:42:06;;;;;;;21.70;7.65;;;;;;;18.54;100.00;100275.25;5302280;28;20031;-70
2023/07/24 01:44:37;;;;;;;58.90;12.73;;;;;;;18.47;100.00;100273.47;5302854;27;20026;-71
2023/07/24 01:47:09;;;;;;;27.73;7.60;;;;;;;18.45;100.00;100268.25;5303002;27;20028;-71
2023/07/24 01:49:40;;;;;;;28.90;9.10;;;;;;;18.72;100.00;100268.66;5302603;28;20023;-72
2023/07/24 01:52:11;;;;;;;15.68;6.70;;;;;;;18.46;100.00;100258.28;5307363;28;20023;-71
2023/07/24 01:54:43;;;;;;;14.20;6.60;;;;;;;18.48;100.00;100251.66;5308576;28;20023;-71
2023/07/24 01:57:14;;;;;;;17.77;8.00;;;;;;;18.65;100.00;100257.75;5308431;27;20822;-71
2023/07/24 01:59:45;;;;;;;14.05;6.72;;;;;;;18.62;100.00;100247.31;5304434;27;20389;-71
2023/07/24 02:02:17;;;;;;;14.73;6.00;;;;;;;18.65;100.00;100240.69;5304140;28;20362;-71
2023/07/24 02:04:48;;;;;;;14.07;6.53;;;;;;;18.73;100.00;100237.91;5300706;28;20039;-71
2023/07/24 02:07:20;;;;;;;14.77;6.18;;;;;;;18.70;100.00;100235.59;5306977;27;20034;-70
2023/07/24 02:09:51;;;;;;;13.30;5.00;;;;;;;18.63;100.00;100231.94;5306272;28;20784;-71
2023/07/24 02:12:23;;;;;;;16.08;5.72;;;;;;;18.70;100.00;100227.47;5305671;28;20171;-72
2023/07/24 02:14:55;;;;;;;19.05;6.20;;;;;;;18.66;100.00;100228.84;5287097;28;20119;-71
2023/07/24 02:17:26;;;;;;;14.50;6.40;;;;;;;18.57;100.00;100225.41;5305014;27;20034;-71
2023/07/24 02:19:57;;;;;;;13.10;5.80;;;;;;;18.54;100.00;100223.06;5307798;28;20574;-72
2023/07/24 02:22:29;;;;;;;13.50;5.90;;;;;;;18.59;100.00;100226.06;5309361;28;20122;-71
2023/07/24 02:25:00;;;;;;;18.33;6.30;;;;;;;18.66;100.00;100220.75;5306472;28;20038;-71
2023/07/24 02:27:34;;;;;;;10.32;5.72;;;;;;;18.65;100.00;100224.47;5307894;27;20023;-71
2023/07/24 02:30:06;;;;;;;11.65;6.43;;;;;;;18.68;100.00;100230.34;5304347;28;20039;-71
2023/07/24 02:32:37;;;;;;;24.48;7.07;;;;;;;18.69;100.00;100220.38;5306774;28;20059;-71
2023/07/24 02:35:08;;;;;;;10.93;5.47;;;;;;;18.75;100.00;100220.47;5307295;28;20067;-71
2023/07/24 02:37:40;;;;;;;15.43;6.22;;;;;;;18.69;100.00;100220.38;5305603;28;20034;-72
2023/07/24 02:40:12;;;;;;;16.00;6.93;;;;;;;18.70;100.00;100231.00;5308726;28;20473;-72
2023/07/24 02:42:43;;;;;;;21.02;8.13;;;;;;;18.70;100.00;100239.13;5309308;28;20027;-72
2023/07/24 02:45:14;;;;;;;14.90;7.10;;;;;;;18.72;100.00;100238.94;5301932;27;20393;-72
2023/07/24 02:47:45;;;;;;;12.95;6.97;;;;;;;18.63;100.00;100232.75;5306085;28;20059;-73
2023/07/24 02:50:17;;;;;;;21.33;7.72;;;;;;;18.63;100.00;100208.44;5308717;28;20023;-73
2023/07/24 02:52:48;;;;;;;15.95;7.88;;;;;;;18.61;100.00;100219.44;5304487;28;20166;-72
2023/07/24 02:55:20;;;;;;;16.75;7.53;;;;;;;18.53;100.00;100216.00;5286736;28;20412;-73
2023/07/24 02:57:51;;;;;;;10.40;6.18;;;;;;;18.43;100.00;100210.88;5306787;27;20039;-72
2023/07/24 03:00:22;;;;;;;11.15;6.20;;;;;;;18.40;100.00;100211.22;5306711;28;20584;-72
2023/07/24 03:02:54;;;;;;;16.58;6.22;;;;;;;18.30;100.00;100218.75;5301642;28;20123;-71
2023/07/24 03:05:25;;;;;;;8.57;5.25;;;;;;;18.26;100.00;100222.84;5309335;28;20047;-72
2023/07/24 03:07:56;;;;;;;8.40;5.00;;;;;;;18.22;100.00;100212.41;5306092;28;20056;-72
2023/07/24 03:10:28;;;;;;;6.68;4.15;;;;;;;18.05;100.00;100191.97;5304041;28;20027;-72
2023/07/24 03:12:59;;;;;;;9.02;4.55;;;;;;;18.21;100.00;100190.97;5307776;28;20378;-72
2023/07/24 03:15:30;;;;;;;8.38;4.60;;;;;;;18.09;100.00;100197.84;5304448;28;20626;-71
2023/07/24 03:18:02;;;;;;;16.08;4.95;;;;;;;18.07;100.00;100205.31;5310469;27;20178;-72
2023/07/24 03:20:33;;;;;;;7.13;4.15;;;;;;;18.20;100.00;100217.16;5304555;28;20398;-72
2023/07/24 03:23:04;;;;;;;7.70;4.53;;;;;;;18.22;100.00;100219.69;5303806;27;20031;-72
2023/07/24 03:25:36;;;;;;;7.93;4.22;;;;;;;18.05;100.00;100218.16;5301022;28;20435;-71
2023/07/24 03:28:07;;;;;;;10.05;4.43;;;;;;;17.88;100.00;100206.63;5299904;28;20023;-71
2023/07/24 03:30:38;;;;;;;11.32;4.88;;;;;;;17.90;100.00;100202.72;5303257;28;20050;-71
2023/07/24 03:33:12;;;;;;;27.38;7.15;;;;;;;17.96;100.00;100195.75;5303164;28;20100;-71
2023/07/24 03:35:43;;;;;;;20.73;6.00;;;;;;;17.92;100.00;100194.44;5296554;28;20745;-71
2023/07/24 03:38:14;;;;;;;9.18;4.28;;;;;;;17.88;100.00;100193.13;5301709;27;20023;-71
2023/07/24 03:40:47;;;;;;;11.63;5.53;;;;;;;17.87;100.00;100188.75;5301831;27;20477;-71
2023/07/24 03:43:18;;;;;;;11.38;4.82;;;;;;;17.79;100.00;100185.06;5300013;28;20046;-71
2023/07/24 03:45:50;;;;;;;17.83;5.28;;;;;;;17.81;100.00;100191.13;5303490;27;20027;-71
2023/07/24 03:48:21;;;;;;;12.65;5.43;;;;;;;17.73;100.00;100184.94;5301433;27;20038;-71
2023/07/24 03:50:59;;;;;;;10.32;4.65;;;;;;;18.03;100.00;100194.84;5301929;28;20034;-71
2023/07/24 03:53:31;;;;;;;8.35;4.82;;;;;;;17.95;100.00;100186.84;5300993;28;20020;-71
2023/07/24 03:56:02;;;;;;;13.15;5.70;;;;;;;18.04;100.00;100190.28;5300624;27;20546;-71
2023/07/24 03:58:33;;;;;;;7.90;4.88;;;;;;;17.94;100.00;100187.84;5305551;28;20427;-71
2023/07/24 04:01:06;;;;;;;18.80;5.70;;;;;;;17.99;100.00;100193.53;5301890;28;20027;-71
2023/07/24 04:03:37;;;;;;;19.90;6.25;;;;;;;17.90;100.00;100201.88;5301414;28;21045;-72
2023/07/24 04:06:09;;;;;;;9.50;4.88;;;;;;;17.95;100.00;100199.47;5301415;28;20028;-71
2023/07/24 04:08:41;;;;;;;10.20;4.82;;;;;;;18.05;100.00;100200.06;5300102;28;20127;-72
2023/07/24 04:11:12;;;;;;;13.45;5.43;;;;;;;18.16;100.00;100210.44;5300459;28;20027;-72
2023/07/24 04:13:43;;;;;;;41.47;8.75;;;;;;;18.28;100.00;100210.00;5293740;28;20019;-72
2023/07/24 04:16:14;;;;;;;23.67;7.10;;;;;;;18.09;100.00;100212.19;5300723;28;20416;-72
2023/07/24 04:18:46;;;;;;;14.35;5.57;;;;;;;18.12;100.00;100209.13;5305784;28;20040;-73
2023/07/24 04:21:17;;;;;;;26.42;8.32;;;;;;;18.02;100.00;100216.63;5307684;28;20034;-72
2023/07/24 04:23:48;;;;;;;9.93;5.70;;;;;;;17.81;100.00;100204.63;5306754;28;20051;-72
2023/07/24 04:26:20;;;;;;;9.18;5.40;;;;;;;17.95;100.00;100215.66;5307386;28;20031;-72
2023/07/24 04:28:51;;;;;;;8.38;4.90;;;;;;;17.95;100.00;100207.56;5303321;28;20024;-72
2023/07/24 04:31:22;;;;;;;36.95;8.63;;;;;;;18.02;100.00;100211.22;5308371;28;20142;-72
2023/07/24 04:33:53;;;;;;;9.25;5.03;;;;;;;18.13;100.00;100218.06;5305345;28;20131;-72
2023/07/24 04:36:25;;;;;;;11.30;6.65;;;;;;;18.10;100.00;100221.13;5306256;28;20027;-72
2023/07/24 04:38:56;;;;;;;9.18;5.35;;;;;;;17.97;100.00;100221.75;5307690;28;20070;-72
2023/07/24 04:41:27;;;;;;;8.00;5.00;;;;;;;17.85;100.00;100223.19;5307848;28;20033;-72
2023/07/24 04:43:59;;;;;;;10.18;5.32;;;;;;;17.87;100.00;100216.56;5306884;28;20051;-72
2023/07/24 04:46:30;;;;;;;8.88;4.72;;;;;;;17.82;100.00;100213.56;5308277;28;20695;-71
2023/07/24 04:49:01;;;;;;;6.80;4.68;;;;;;;17.60;100.00;100208.00;5301106;28;20492;-71
2023/07/24 04:51:33;;;;;;;9.73;5.30;;;;;;;17.64;100.00;100214.69;5302760;28;20034;-71
2023/07/24 04:54:07;;;;;;;9.88;6.00;;;;;;;17.58;100.00;100219.94;5299104;28;21256;-71
2023/07/24 04:56:38;;;;;;;9.30;6.05;;;;;;;17.43;100.00;100218.03;5300302;28;20027;-71
2023/07/24 04:59:10;;;;;;;18.17;7.18;;;;;;;17.73;100.00;100218.16;5299944;28;20355;-71
2023/07/24 05:01:41;;;;;;;9.23;5.78;;;;;;;17.65;100.00;100210.13;5302610;28;20028;-71
2023/07/24 05:04:12;;;;;;;8.80;5.60;;;;;;;17.59;100.00;100209.00;5299962;28;20031;-71
2023/07/24 05:06:44;;;;;;;8.68;5.93;;;;;;;17.46;100.00;100207.91;5302341;28;20028;-72
2023/07/24 05:09:15;;;;;;;9.02;6.47;;;;;;;17.43;100.00;100207.25;5313873;28;20111;-72
2023/07/24 05:11:46;;;;;;;8.35;6.50;;;;;;;17.38;100.00;100222.28;5311046;28;20032;-72
2023/07/24 05:14:18;;;;;;;12.07;6.93;;;;;;;17.20;100.00;100219.81;5313131;28;20031;-72
2023/07/24 05:16:49;;;;;;;12.57;7.13;;;;;;;17.35;100.00;100225.31;5305971;28;20080;-72
2023/07/24 05:19:20;;;;;;;11.32;7.65;;;;;;;17.37;100.00;100229.53;5303385;27;20027;-70
2023/07/24 05:21:52;;;;;;;12.43;7.45;;;;;;;17.07;100.00;100225.81;5309837;28;20049;-70
2023/07/24 05:24:23;;;;;;;11.73;7.50;;;;;;;17.37;100.00;100228.66;5312370;28;20103;-71
2023/07/24 05:26:54;;;;;;;15.82;8.68;;;;;;;17.09;100.00;100234.56;5308325;28;21343;-71
2023/07/24 05:29:26;;;;;;;10.27;7.43;;;;;;;17.08;100.00;100240.09;5311115;28;20020;-72
2023/07/24 05:31:58;;;;;;;13.10;8.30;;;;;;;17.21;100.00;100237.69;5310922;28;20036;-72
2023/07/24 05:34:30;;;;;;;13.30;8.45;;;;;;;17.29;100.00;100240.34;5313321;28;21207;-71
2023/07/24 05:37:01;;;;;;;12.77;8.45;;;;;;;17.08;100.00;100240.09;5309283;28;20032;-72
2023/07/24 05:39:32;;;;;;;24.42;10.88;;;;;;;17.29;100.00;100234.13;5311990;28;20063;-71
2023/07/24 05:42:04;;;;;;;15.25;9.63;;;;;;;17.30;100.00;100236.66;5311407;28;20019;-71
2023/07/24 05:44:37;;;;;;;15.00;10.02;;;;;;;17.22;100.00;100242.06;5307475;28;21058;-71
2023/07/24 05:47:08;;;;;;;14.18;9.65;;;;;;;17.37;100.00;100244.84;5306470;28;20028;-71
2023/07/24 05:49:39;;;;;;;18.75;10.73;;;;;;;17.28;100.00;100249.47;5306233;28;20054;-71
2023/07/24 05:52:11;;;;;;;15.10;9.80;;;;;;;17.42;100.00;100240.59;5305185;28;20336;-71
2023/07/24 05:54:42;;;;;;;24.42;11.52;;;;;;;17.46;100.00;100256.44;5303250;28;20408;-72
2023/07/24 05:57:13;;;;;;;16.52;9.75;;;;;;;17.44;100.00;100256.63;5304617;28;20035;-71
2023/07/24 05:59:45;;;;;;;13.00;9.10;;;;;;;17.43;100.00;100258.50;5303001;28;20485;-71
2023/07/24 06:02:16;;;;;;;12.50;9.10;;;;;;;17.85;100.00;100247.47;5310059;28;20038;-70
2023/07/24 06:04:47;;;;;;;11.60;9.05;;;;;;;17.83;100.00;100247.59;5306147;28;20031;-70
2023/07/24 06:07:19;;;;;;;13.40;9.45;;;;;;;17.90;100.00;100247.78;5307790;28;20035;-70
2023/07/24 06:09:50;;;;;;;14.50;9.68;;;;;;;17.91;100.00;100246.75;5309431;28;20123;-70
2023/07/24 06:12:21;;;;;;;12.60;9.73;;;;;;;18.01;100.00;100267.09;5311211;28;20060;-71
2023/07/24 06:14:53;;;;;;;18.60;11.02;;;;;;;17.93;100.00;100260.88;5309098;28;20051;-70
2023/07/24 06:17:24;;;;;;;15.38;10.15;;;;;;;17.78;100.00;100261.66;5309499;27;20127;-71
2023/07/24 06:19:55;;;;;;;14.40;9.48;;;;;;;17.82;100.00;100262.13;5312031;28;20710;-70
2023/07/24 06:22:27;;;;;;;24.00;11.15;;;;;;;17.97;100.00;100264.94;5312889;28;20054;-70
2023/07/24 06:24:58;;;;;;;14.90;9.68;;;;;;;17.93;100.00;100266.28;5314468;27;20035;-70
2023/07/24 06:27:29;;;;;;;16.20;9.70;;;;;;;18.08;100.00;100269.06;5311527;28;20111;-70
2023/07/24 06:30:01;;;;;;;20.73;11.10;;;;;;;18.18;100.00;100262.41;5312302;28;20367;-70
2023/07/24 06:32:33;;;;;;;14.68;8.93;;;;;;;18.15;100.00;100262.75;5308082;28;20016;-70
2023/07/24 06:35:05;;;;;;;13.30;8.50;;;;;;;18.18;100.00;100264.28;5313333;28;20019;-70
2023/07/24 06:37:36;;;;;;;14.05;8.15;;;;;;;18.22;100.00;100262.88;5305907;28;20081;-70
2023/07/24 06:40:08;;;;;;;10.98;7.75;;;;;;;18.18;100.00;100267.81;5300449;28;20032;-71
2023/07/24 06:42:39;;;;;;;14.00;8.20;;;;;;;18.03;100.00;100272.31;5309767;28;20268;-70
2023/07/24 06:45:10;;;;;;;10.93;6.97;;;;;;;18.05;100.00;100267.56;5309881;28;20020;-70
2023/07/24 06:47:42;;;;;;;9.63;6.93;;;;;;;18.09;100.00;100263.47;5305112;28;20043;-71
2023/07/24 06:50:13;;;;;;;11.05;7.13;;;;;;;17.88;100.00;100266.84;5308977;28;20020;-71
2023/07/24 06:52:45;;;;;;;11.02;7.28;;;;;;;18.09;100.00;100262.66;5304744;27;20496;-71
2023/07/24 06:55:16;;;;;;;11.95;7.82;;;;;;;18.03;100.00;100261.50;5306451;28;21050;-71
2023/07/24 06:57:48;;;;;;;9.85;7.10;;;;;;;17.79;100.00;100260.59;5304982;28;20026;-71
2023/07/24 07:00:19;;;;;;;11.00;6.75;;;;;;;17.82;100.00;100265.66;5303610;27;20732;-71
2023/07/24 07:02:51;;;;;;;11.82;7.22;;;;;;;17.75;100.00;100261.16;5300508;28;20027;-72
2023/07/24 07:05:22;;;;;;;8.82;6.22;;;;;;;17.78;100.00;100261.66;5305673;28;20053;-71
2023/07/24 07:07:53;;;;;;;8.23;5.78;;;;;;;17.74;100.00;100259.50;5302564;28;21211;-72
2023/07/24 07:10:25;;;;;;;8.48;6.20;;;;;;;17.68;100.00;100266.44;5302467;28;20027;-72
2023/07/24 07:12:56;;;;;;;8.07;6.13;;;;;;;17.69;100.00;100262.72;5298927;27;20304;-71
2023/07/24 07:15:27;;;;;;;10.48;6.35;;;;;;;17.66;100.00;100263.09;5306843;27;20035;-72
2023/07/24 07:17:59;;;;;;;9.20;5.97;;;;;;;17.65;100.00;100258.69;5304456;28;20080;-71
2023/07/24 07:20:30;;;;;;;8.75;5.85;;;;;;;17.56;100.00;100262.44;5300436;28;20069;-71
2023/07/24 07:23:01;;;;;;;9.57;6.85;;;;;;;17.59;100.00;100256.72;5305458;28;20477;-72
2023/07/24 07:25:33;;;;;;;9.00;5.97;;;;;;;17.67;100.00;100251.25;5305421;28;20579;-73
2023/07/24 07:28:04;;;;;;;8.95;6.20;;;;;;;17.67;100.00;100258.53;5304154;28;20034;-72
2023/07/24 07:30:35;;;;;;;7.05;4.68;;;;;;;17.60;100.00;100263.78;5301439;28;20032;-72
2023/07/24 07:33:07;;;;;;;6.30;4.20;;;;;;;17.48;100.00;100259.81;5303211;28;20447;-72
2023/07/24 07:35:38;;;;;;;6.15;4.28;;;;;;;17.55;100.00;100255.41;5303911;27;20025;-71
2023/07/24 07:38:09;;;;;;;7.03;4.63;;;;;;;17.60;100.00;100266.47;5305974;28;20154;-72
2023/07/24 07:40:41;;;;;;;7.10;4.80;;;;;;;17.77;100.00;100270.75;5305022;28;20050;-71
2023/07/24 07:43:12;;;;;;;7.63;5.28;;;;;;;17.92;100.00;100268.16;5306329;28;20481;-72
2023/07/24 07:45:43;;;;;;;9.50;5.55;;;;;;;17.98;100.00;100263.91;5305390;28;20027;-72
2023/07/24 07:48:15;;;;;;;7.07;5.05;;;;;;;17.93;100.00;100260.88;5308367;28;20066;-72
2023/07/24 07:50:50;;;;;;;6.88;5.10;;;;;;;17.87;100.00;100257.06;5300419;28;20038;-71
2023/07/24 07:53:21;;;;;;;8.77;5.95;;;;;;;17.97;100.00;100254.13;5304388;28;20040;-71
2023/07/24 07:55:59;;;;;;;8.98;6.07;;;;;;;17.97;100.00;100259.53;5301950;27;20030;-71
2023/07/24 07:58:31;;;;;;;8.48;6.30;;;;;;;18.03;100.00;100256.94;5306060;28;20180;-70
2023/07/24 08:01:06;;;;;;;8.50;5.90;;;;;;;17.98;100.00;100248.53;5308687;28;20031;-71
2023/07/24 08:03:37;;;;;;;8.30;6.13;;;;;;;18.10;100.00;100264.31;5303795;27;20035;-71
2023/07/24 08:06:08;;;;;;;9.02;6.90;;;;;;;18.22;100.00;100263.72;5299324;28;20088;-70
2023/07/24 08:08:40;;;;;;;10.20;7.05;;;;;;;18.31;100.00;100264.47;5306740;27;20043;-70
2023/07/24 08:11:11;;;;;;;10.88;7.32;;;;;;;18.39;100.00;100259.00;5310697;28;20039;-70
2023/07/24 08:13:42;;;;;;;8.57;6.68;;;;;;;18.37;100.00;100265.59;5307080;28;20034;-70
2023/07/24 08:16:21;;;;;;;8.77;7.18;;;;;;;18.65;100.00;100259.59;5309275;28;21290;-70
2023/07/24 08:18:52;;;;;;;9.52;7.03;;;;;;;18.21;100.00;100259.31;5307901;28;20020;-70
2023/07/24 08:21:23;;;;;;;8.85;6.97;;;;;;;18.22;100.00;100252.91;5303468;28;20555;-70
2023/07/24 08:23:54;;;;;;;10.50;7.85;;;;;;;18.25;100.00;100246.28;5303354;28;20073;-70
2023/07/24 08:26:26;;;;;;;10.73;8.55;;;;;;;18.25;100.00;100243.59;5312683;27;20050;-69
2023/07/24 08:28:57;;;;;;;11.57;8.07;;;;;;;18.18;100.00;100245.38;5305088;28;20028;-70
2023/07/24 08:31:29;;;;;;;12.10;9.00;;;;;;;18.23;100.00;100251.88;5306002;28;20023;-69
2023/07/24 08:34:01;;;;;;;13.52;9.95;;;;;;;18.14;100.00;100247.59;5305290;28;20031;-69
2023/07/24 08:36:32;;;;;;;13.90;9.90;;;;;;;18.42;100.00;100252.38;5299522;28;22005;-70
2023/07/24 08:39:03;;;;;;;14.02;10.35;;;;;;;18.40;100.00;100255.28;5300161;28;20036;-70
2023/07/24 08:41:37;;;;;;;14.35;11.13;;;;;;;18.43;100.00;100262.19;5309526;28;20039;-70
2023/07/24 08:44:09;;;;;;;13.50;10.55;;;;;;;18.40;100.00;100266.06;5307173;28;20426;-71
2023/07/24 08:46:41;;;;;;;11.45;9.60;;;;;;;18.45;100.00;100265.53;5306345;28;20027;-70
2023/07/24 08:49:13;;;;;;;11.93;9.32;;;;;;;18.57;100.00;100261.34;5306653;28;20031;-69
2023/07/24 08:51:46;;;;;;;11.88;9.50;;;;;;;18.61;100.00;100251.84;5304613;28;20042;-70
2023/07/24 08:54:19;;;;;;;13.48;9.48;;;;;;;18.61;100.00;100256.44;5303539;28;20062;-69
2023/07/24 08:56:52;;;;;;;12.70;9.60;;;;;;;18.57;100.00;100255.13;5305228;28;20032;-69
2023/07/24 08:59:23;;;;;;;13.93;9.13;;;;;;;18.60;100.00;100243.94;5305243;28;20035;-70
2023/07/24 09:01:55;;;;;;;11.60;8.57;;;;;;;18.51;100.00;100242.34;5306791;28;20047;-69
2023/07/24 09:04:27;;;;;;;10.73;8.55;;;;;;;18.44;100.00;100239.53;5301014;28;20031;-70
2023/07/24 09:06:58;;;;;;;10.35;8.73;;;;;;;18.52;100.00;100236.75;5304187;28;20038;-70
2023/07/24 09:09:31;;;;;;;11.63;8.70;;;;;;;18.59;100.00;100221.47;5304469;28;20650;-70
2023/07/24 09:12:02;;;;;;;13.07;9.38;;;;;;;18.78;100.00;100212.00;5306408;28;20067;-68
2023/07/24 09:14:34;;;;;;;15.25;9.60;;;;;;;18.86;100.00;100211.09;5304991;28;20135;-70
2023/07/24 09:17:10;;;;;;;12.93;9.40;;;;;;;18.72;100.00;100210.03;5303185;28;20604;-70
2023/07/24 09:19:43;;;;;;;11.20;9.10;;;;;;;18.91;100.00;100218.66;5305667;28;20028;-70
2023/07/24 09:22:15;;;;;;;10.65;8.70;;;;;;;19.04;100.00;100217.97;5307505;28;20531;-70
2023/07/24 09:24:54;;;;;;;9.93;7.45;;;;;;;19.27;100.00;100212.44;5303782;28;20031;-70
2023/07/24 09:27:28;;;;;;;8.50;6.22;;;;;;;19.13;100.00;100206.84;5304042;28;20027;-70
2023/07/24 09:29:59;;;;;;;8.15;5.78;;;;;;;19.19;100.00;100198.00;5305440;28;20028;-70
2023/07/24 09:32:31;;;;;;;7.10;5.72;;;;;;;19.24;100.00;100196.59;5303875;28;20028;-69
2023/07/24 09:35:03;;;;;;;6.70;5.05;;;;;;;19.10;100.00;100195.56;5306121;28;20068;-70
2023/07/24 09:37:34;;;;;;;5.93;4.53;;;;;;;18.96;100.00;100178.34;5307413;28;20095;-68
2023/07/24 09:40:06;;;;;;;5.35;4.20;;;;;;;18.93;100.00;100168.78;5300693;28;20035;-70
2023/07/24 09:42:39;;;;;;;7.10;4.68;;;;;;;19.00;100.00;100156.19;5307447;28;20103;-70
2023/07/24 09:45:11;;;;;;;4.90;3.88;;;;;;;19.00;100.00;100171.53;5308871;28;20071;-68
2023/07/24 09:47:43;;;;;;;5.18;4.25;;;;;;;19.11;100.00;100168.34;5303856;28;20155;-70
2023/07/24 09:50:14;;;;;;;6.28;4.65;;;;;;;19.10;100.00;100146.91;5307343;28;20115;-70
2023/07/24 09:52:47;;;;;;;7.03;4.45;;;;;;;19.12;100.00;100151.13;5295141;28;20957;-68
2023/07/24 09:55:23;;;;;;;6.05;3.90;;;;;;;19.18;100.00;100147.63;5310971;28;20056;-69
2023/07/24 09:57:55;;;;;;;5.43;4.00;;;;;;;18.96;100.00;100140.50;5312813;28;20076;-70
2023/07/24 10:00:27;;;;;;;5.32;4.68;;;;;;;18.93;100.00;100133.63;5306327;27;20355;-68
2023/07/24 10:02:58;;;;;;;6.85;4.50;;;;;;;18.88;100.00;100135.22;5309708;28;20034;-69
2023/07/24 10:05:30;;;;;;;6.45;4.47;;;;;;;18.80;100.00;100146.97;5306951;28;20067;-69
2023/07/24 10:08:02;;;;;;;5.70;4.60;;;;;;;18.74;100.00;100145.00;5305730;28;20128;-69
2023/07/24 10:10:34;;;;;;;5.20;4.45;;;;;;;18.68;100.00;100149.28;5304923;28;20038;-69
2023/07/24 10:13:10;;;;;;;6.68;4.82;;;;;;;18.73;100.00;100167.63;5305104;28;20024;-69
2023/07/24 10:15:42;;;;;;;5.05;4.00;;;;;;;18.60;100.00;100166.44;5306369;28;20016;-69
2023/07/24 10:18:18;;;;;;;5.75;4.40;;;;;;;18.67;100.00;100162.97;5304094;28;20036;-69
2023/07/24 10:21:00;;;;;;;5.38;4.20;;;;;;;18.66;100.00;100164.00;5304832;28;20033;-69
2023/07/24 10:23:44;;;;;;;5.15;4.35;;;;;;;18.64;100.00;100168.75;5313523;27;20319;-68
2023/07/24 10:26:15;;;;;;;6.60;5.20;;;;;;;18.55;100.00;100176.13;5309620;27;20032;-68
2023/07/24 10:28:48;;;;;;;6.00;4.72;;;;;;;18.58;100.00;100183.84;5305898;28;20081;-69
2023/07/24 10:31:25;;;;;;;6.10;5.43;;;;;;;18.52;100.00;100177.31;5306113;28;20024;-69
2023/07/24 10:34:04;;;;;;;5.95;4.72;;;;;;;18.53;100.00;100183.59;5308289;28;20028;-68
2023/07/24 10:36:36;;;;;;;5.80;5.10;;;;;;;18.51;100.00;100175.66;5306075;28;20038;-68
2023/07/24 10:39:15;;;;;;;7.18;5.18;;;;;;;18.55;100.00;100166.16;5309625;28;20020;-68
2023/07/24 10:41:47;;;;;;;6.30;5.57;;;;;;;18.55;100.00;100168.84;5305877;27;20119;-68
2023/07/24 10:44:18;;;;;;;6.65;5.40;;;;;;;18.64;100.00;100172.31;5308279;28;20369;-68
2023/07/24 10:46:51;;;;;;;6.53;5.82;;;;;;;18.73;100.00;100186.53;5308899;28;20028;-69
2023/07/24 10:49:22;;;;;;;7.68;5.97;;;;;;;18.72;100.00;100195.69;5285547;28;20039;-68
2023/07/24 10:51:58;;;;;;;7.15;5.93;;;;;;;18.90;100.00;100196.16;5309208;28;20024;-68
2023/07/24 10:54:29;;;;;;;7.60;5.75;;;;;;;18.93;100.00;100194.97;5310961;28;20080;-69
2023/07/24 10:57:00;;;;;;;6.93;5.28;;;;;;;18.96;100.00;100181.88;5305861;28;20028;-68
2023/07/24 10:59:39;;;;;;;6.50;5.72;;;;;;;19.09;100.00;100172.28;5307408;27;20024;-69
2023/07/24 11:02:10;;;;;;;5.82;5.05;;;;;;;19.13;100.00;100184.41;5308412;28;20038;-68
2023/07/24 11:04:42;;;;;;;6.05;5.03;;;;;;;19.07;100.00;100196.81;5310403;28;20027;-69
2023/07/24 11:07:14;;;;;;;7.30;5.35;;;;;;;19.23;100.00;100195.75;5308418;28;20526;-70
2023/07/24 11:09:45;;;;;;;8.30;6.10;;;;;;;19.29;100.00;100186.03;5311163;28;20039;-69
2023/07/24 11:12:16;;;;;;;7.18;6.32;;;;;;;19.39;100.00;100198.22;5312716;28;20537;-69
2023/07/24 11:14:58;;;;;;;8.35;7.10;;;;;;;19.48;100.00;100198.09;5310579;28;20027;-69
2023/07/24 11:17:35;;;;;;;7.68;6.22;;;;;;;19.66;100.00;100205.81;5310842;27;20031;-68
2023/07/24 11:20:12;;;;;;;7.22;6.30;;;;;;;19.59;100.00;100190.31;5312676;28;20048;-70
2023/07/24 11:22:44;;;;;;;8.02;7.22;;;;;;;19.66;100.00;100184.97;5302532;28;20027;-69
2023/07/24 11:25:15;;;;;;;7.80;7.00;;;;;;;19.57;100.00;100186.13;5307332;27;20023;-68
2023/07/24 11:27:47;;;;;;;7.63;6.82;;;;;;;19.62;100.00;100188.25;5312338;28;20458;-70
2023/07/24 11:30:21;;;;;;;7.70;6.97;;;;;;;19.76;100.00;100190.94;5314296;27;20477;-70
2023/07/24 11:32:53;;;;;;;6.63;5.93;;;;;;;19.71;100.00;100189.81;5315851;27;20074;-70
2023/07/24 11:35:26;;;;;;;7.85;7.13;;;;;;;19.76;100.00;100190.94;5305682;28;20027;-70